createdAt,value
2017-06-30T00:00:00.659Z,17.12
2017-06-30T00:01:01.384Z,17.06
2017-06-30T00:02:02.110Z,17.06
2017-06-30T00:03:02.830Z,17.06
2017-06-30T00:04:03.558Z,17.01
2017-06-30T00:05:04.533Z,17.09
2017-06-30T00:06:05.254Z,17.01
2017-06-30T00:07:05.980Z,16.97
2017-06-30T00:08:06.704Z,17.02
2017-06-30T00:09:07.430Z,17.08
2017-06-30T00:10:08.404Z,16.97
2017-06-30T00:11:09.131Z,16.94
2017-06-30T00:12:09.851Z,17.01
2017-06-30T00:13:10.576Z,17.02
2017-06-30T00:14:11.300Z,17.01
2017-06-30T00:15:12.277Z,17.05
2017-06-30T00:16:13.001Z,16.94
2017-06-30T00:17:13.725Z,16.97
2017-06-30T00:18:14.448Z,16.96
2017-06-30T00:19:15.170Z,17.01
2017-06-30T00:20:16.147Z,16.94
2017-06-30T00:21:16.872Z,16.97
2017-06-30T00:22:17.595Z,16.90
2017-06-30T00:23:18.321Z,16.87
2017-06-30T00:24:19.042Z,16.83
2017-06-30T00:25:20.016Z,16.86
2017-06-30T00:26:20.741Z,16.94
2017-06-30T00:27:21.464Z,16.93
2017-06-30T00:28:22.187Z,16.87
2017-06-30T00:29:22.914Z,16.87
2017-06-30T00:30:23.890Z,16.90
2017-06-30T00:31:24.638Z,16.87
2017-06-30T00:32:25.360Z,16.87
2017-06-30T00:33:26.087Z,16.90
2017-06-30T00:34:26.810Z,16.76
2017-06-30T00:35:27.786Z,16.83
2017-06-30T00:36:28.509Z,16.83
2017-06-30T00:37:29.234Z,16.74
2017-06-30T00:38:29.957Z,16.84
2017-06-30T00:39:30.682Z,16.79
2017-06-30T00:40:31.654Z,16.81
2017-06-30T00:41:32.376Z,16.78
2017-06-30T00:42:33.099Z,16.78
2017-06-30T00:43:33.820Z,16.78
2017-06-30T00:44:34.547Z,16.75
2017-06-30T00:45:35.521Z,16.76
2017-06-30T00:46:36.243Z,16.74
2017-06-30T00:47:36.968Z,16.78
2017-06-30T00:48:37.690Z,16.74
2017-06-30T00:49:38.419Z,16.75
2017-06-30T00:50:39.391Z,16.72
2017-06-30T00:51:40.110Z,16.74
2017-06-30T00:52:40.835Z,16.65
2017-06-30T00:53:41.562Z,16.66
2017-06-30T00:54:42.286Z,16.65
2017-06-30T00:55:43.258Z,16.64
2017-06-30T00:56:43.983Z,16.66
2017-06-30T00:57:44.703Z,16.58
2017-06-30T00:58:45.425Z,16.64
2017-06-30T00:59:46.150Z,16.58
2017-06-30T01:00:47.125Z,16.60
2017-06-30T01:01:47.871Z,16.53
2017-06-30T01:02:48.594Z,16.53
2017-06-30T01:03:49.316Z,16.50
2017-06-30T01:04:50.042Z,16.58
2017-06-30T01:05:51.014Z,16.47
2017-06-30T01:06:51.737Z,16.50
2017-06-30T01:07:52.461Z,16.50
2017-06-30T01:08:53.223Z,16.49
2017-06-30T01:09:53.910Z,16.42
2017-06-30T01:10:54.884Z,16.39
2017-06-30T01:11:55.615Z,16.39
2017-06-30T01:12:56.334Z,16.35
2017-06-30T01:13:57.057Z,16.46
2017-06-30T01:14:57.777Z,16.41
2017-06-30T01:15:58.752Z,16.39
2017-06-30T01:16:59.479Z,16.39
2017-06-30T01:18:00.224Z,16.42
2017-06-30T01:19:00.947Z,16.35
2017-06-30T01:20:01.667Z,16.41
2017-06-30T01:21:02.645Z,16.38
2017-06-30T01:22:03.366Z,16.32
2017-06-30T01:23:04.087Z,16.33
2017-06-30T01:24:04.815Z,16.38
2017-06-30T01:25:05.535Z,16.36
2017-06-30T01:26:06.506Z,16.33
2017-06-30T01:27:07.228Z,16.32
2017-06-30T01:28:07.952Z,16.28
2017-06-30T01:29:08.679Z,16.29
2017-06-30T01:30:09.399Z,16.32
2017-06-30T01:31:10.374Z,16.31
2017-06-30T01:32:11.097Z,16.29
2017-06-30T01:33:11.819Z,16.29
2017-06-30T01:34:12.544Z,16.35
2017-06-30T01:35:13.267Z,16.29
2017-06-30T01:36:14.263Z,16.29
2017-06-30T01:37:14.988Z,16.28
2017-06-30T01:38:15.711Z,16.15
2017-06-30T01:39:16.438Z,16.23
2017-06-30T01:41:18.038Z,16.23
2017-06-30T01:42:18.762Z,16.16
2017-06-30T01:43:19.486Z,16.28
2017-06-30T01:44:20.206Z,16.28
2017-06-30T01:45:20.930Z,16.21
2017-06-30T01:46:21.903Z,16.28
2017-06-30T01:47:22.624Z,16.08
2017-06-30T01:48:23.350Z,16.12
2017-06-30T01:49:24.093Z,16.10
2017-06-30T01:50:24.816Z,16.13
2017-06-30T01:51:25.789Z,16.05
2017-06-30T01:52:26.516Z,16.01
2017-06-30T01:53:27.236Z,16.04
2017-06-30T01:54:27.959Z,16.04
2017-06-30T01:55:28.679Z,15.98
2017-06-30T01:56:29.653Z,15.97
2017-06-30T01:57:30.377Z,16.01
2017-06-30T01:58:31.095Z,15.92
2017-06-30T01:59:31.820Z,16.05
2017-06-30T02:00:32.545Z,16.04
2017-06-30T02:01:33.517Z,15.98
2017-06-30T02:02:34.264Z,15.98
2017-06-30T02:03:34.986Z,15.97
2017-06-30T02:04:35.707Z,15.91
2017-06-30T02:05:36.430Z,15.90
2017-06-30T02:06:37.403Z,15.92
2017-06-30T02:07:38.125Z,15.98
2017-06-30T02:08:38.851Z,15.94
2017-06-30T02:09:39.573Z,15.90
2017-06-30T02:10:40.294Z,15.83
2017-06-30T02:11:41.267Z,15.80
2017-06-30T02:12:41.992Z,15.84
2017-06-30T02:13:42.722Z,15.83
2017-06-30T02:14:43.438Z,15.79
2017-06-30T02:15:44.163Z,15.77
2017-06-30T03:05:15.266Z,15.54
2017-06-30T03:06:15.988Z,15.58
2017-06-30T03:07:16.714Z,15.52
2017-06-30T03:08:17.440Z,15.57
2017-06-30T03:09:18.165Z,15.55
2017-06-30T03:10:19.139Z,15.58
2017-06-30T03:11:19.867Z,15.57
2017-06-30T03:12:20.593Z,15.57
2017-06-30T03:13:21.319Z,15.54
2017-06-30T03:14:22.044Z,15.54
2017-06-30T03:15:23.020Z,15.54
2017-06-30T03:16:23.745Z,15.46
2017-06-30T03:17:24.472Z,15.55
2017-06-30T03:18:25.200Z,15.52
2017-06-30T03:19:25.928Z,15.55
2017-06-30T03:20:26.902Z,15.51
2017-06-30T03:21:27.656Z,15.57
2017-06-30T03:22:28.377Z,15.58
2017-06-30T03:23:29.103Z,15.46
2017-06-30T03:24:29.828Z,15.55
2017-06-30T03:25:30.810Z,15.52
2017-06-30T03:26:31.534Z,15.46
2017-06-30T03:27:32.260Z,15.49
2017-06-30T03:28:32.991Z,15.52
2017-06-30T03:29:33.714Z,15.55
2017-06-30T03:30:34.692Z,15.52
2017-06-30T03:31:35.422Z,15.57
2017-06-30T03:32:36.147Z,15.54
2017-06-30T03:33:36.872Z,15.42
2017-06-30T03:34:37.629Z,15.57
2017-06-30T03:35:38.604Z,15.46
2017-06-30T03:36:39.332Z,15.35
2017-06-30T03:37:40.064Z,15.42
2017-06-30T03:38:40.788Z,15.47
2017-06-30T03:39:41.516Z,15.47
2017-06-30T03:40:42.499Z,15.44
2017-06-30T03:41:43.246Z,15.42
2017-06-30T03:42:43.978Z,15.49
2017-06-30T03:43:44.701Z,15.37
2017-06-30T03:44:45.432Z,15.40
2017-06-30T03:45:46.412Z,15.35
2017-06-30T03:46:47.138Z,15.58
2017-06-30T03:47:47.869Z,15.54
2017-06-30T03:48:48.597Z,15.46
2017-06-30T03:49:49.325Z,15.46
2017-06-30T03:50:50.303Z,15.55
2017-06-30T03:51:51.028Z,15.49
2017-06-30T03:52:51.756Z,15.44
2017-06-30T03:53:52.481Z,15.46
2017-06-30T03:54:53.215Z,15.58
2017-06-30T03:55:54.187Z,15.49
2017-06-30T03:56:54.914Z,15.49
2017-06-30T03:57:55.645Z,15.44
2017-06-30T03:58:56.372Z,15.46
2017-06-30T03:59:57.100Z,15.55
2017-06-30T04:00:58.083Z,15.49
2017-06-30T04:01:58.811Z,15.57
2017-06-30T04:02:59.539Z,15.58
2017-06-30T04:04:00.269Z,15.61
2017-06-30T04:05:00.995Z,15.58
2017-06-30T04:06:01.975Z,15.59
2017-06-30T04:07:02.700Z,15.52
2017-06-30T04:08:03.428Z,15.59
2017-06-30T04:09:04.154Z,15.62
2017-06-30T04:10:04.881Z,15.57
2017-06-30T04:11:05.857Z,15.57
2017-06-30T04:12:06.586Z,15.68
2017-06-30T04:13:07.324Z,15.64
2017-06-30T04:14:08.046Z,15.59
2017-06-30T04:15:08.774Z,15.67
2017-06-30T04:16:09.750Z,15.75
2017-06-30T04:17:10.481Z,15.80
2017-06-30T04:18:11.209Z,15.73
2017-06-30T04:19:11.935Z,15.64
2017-06-30T04:20:12.664Z,15.76
2017-06-30T04:21:13.642Z,15.79
2017-06-30T04:22:14.395Z,15.82
2017-06-30T04:23:15.125Z,15.79
2017-06-30T04:24:15.859Z,15.79
2017-06-30T04:25:16.587Z,15.79
2017-06-30T04:26:17.568Z,15.88
2017-06-30T04:27:18.294Z,15.75
2017-06-30T04:28:19.052Z,15.83
2017-06-30T04:29:19.782Z,15.77
2017-06-30T04:30:20.511Z,15.79
2017-06-30T04:31:21.493Z,15.82
2017-06-30T04:32:22.221Z,15.79
2017-06-30T04:33:22.947Z,15.88
2017-06-30T04:34:23.696Z,15.82
2017-06-30T04:35:24.428Z,15.77
2017-06-30T04:36:25.409Z,15.88
2017-06-30T04:37:26.135Z,15.79
2017-06-30T04:38:26.870Z,15.79
2017-06-30T04:39:27.598Z,15.80
2017-06-30T04:40:28.329Z,15.84
2017-06-30T04:41:29.309Z,15.80
2017-06-30T04:42:30.041Z,15.92
2017-06-30T04:43:30.769Z,15.90
2017-06-30T04:44:31.496Z,15.94
2017-06-30T04:45:32.227Z,16.00
2017-06-30T04:46:33.208Z,15.88
2017-06-30T04:47:33.939Z,16.00
2017-06-30T04:48:34.670Z,15.92
2017-06-30T04:49:35.400Z,16.01
2017-06-30T04:50:36.133Z,15.91
2017-06-30T04:51:37.108Z,15.98
2017-06-30T04:52:37.841Z,15.95
2017-06-30T04:53:38.571Z,15.97
2017-06-30T04:54:39.297Z,15.95
2017-06-30T04:55:40.028Z,16.01
2017-06-30T04:56:41.009Z,16.05
2017-06-30T04:57:41.736Z,16.10
2017-06-30T04:58:42.465Z,16.13
2017-06-30T04:59:43.196Z,16.02
2017-06-30T05:00:43.925Z,16.02
2017-06-30T05:01:44.902Z,16.10
2017-06-30T05:02:45.635Z,16.10
2017-06-30T05:03:46.368Z,16.16
2017-06-30T05:04:47.128Z,16.15
2017-06-30T05:05:47.860Z,16.21
2017-06-30T05:06:48.839Z,16.16
2017-06-30T05:07:49.572Z,16.23
2017-06-30T05:08:50.305Z,16.21
2017-06-30T05:09:51.060Z,16.23
2017-06-30T05:10:51.789Z,16.31
2017-06-30T05:11:52.768Z,16.28
2017-06-30T05:12:53.508Z,16.29
2017-06-30T05:13:54.234Z,16.24
2017-06-30T05:14:54.959Z,16.20
2017-06-30T05:15:55.687Z,16.31
2017-06-30T05:16:56.693Z,16.33
2017-06-30T05:17:57.424Z,16.29
2017-06-30T05:18:58.152Z,16.39
2017-06-30T05:19:58.887Z,16.36
2017-06-30T05:20:59.621Z,16.39
2017-06-30T05:22:00.603Z,16.39
2017-06-30T05:23:01.331Z,16.36
2017-06-30T05:24:02.064Z,16.39
2017-06-30T05:25:02.798Z,16.29
2017-06-30T05:26:03.529Z,16.29
2017-06-30T05:27:04.536Z,16.39
2017-06-30T05:28:05.265Z,16.33
2017-06-30T05:29:06.000Z,16.38
2017-06-30T05:30:06.735Z,16.33
2017-06-30T05:31:07.461Z,16.36
2017-06-30T05:32:08.445Z,16.38
2017-06-30T05:33:09.173Z,16.35
2017-06-30T05:34:09.908Z,16.43
2017-06-30T05:35:10.640Z,16.49
2017-06-30T05:36:11.371Z,16.51
2017-06-30T05:37:12.399Z,16.50
2017-06-30T05:38:13.131Z,16.53
2017-06-30T05:39:13.865Z,16.61
2017-06-30T05:40:14.597Z,16.64
2017-06-30T05:41:15.327Z,16.69
2017-06-30T05:42:16.308Z,16.74
2017-06-30T05:43:17.040Z,16.78
2017-06-30T05:44:17.771Z,16.86
2017-06-30T05:45:18.504Z,16.81
2017-06-30T05:46:19.232Z,16.84
2017-06-30T05:47:20.210Z,16.91
2017-06-30T05:48:20.945Z,16.97
2017-06-30T05:49:21.698Z,16.91
2017-06-30T05:50:22.429Z,16.87
2017-06-30T05:51:23.158Z,16.87
2017-06-30T05:52:24.139Z,17.04
2017-06-30T05:53:24.893Z,16.91
2017-06-30T05:54:25.623Z,17.01
2017-06-30T05:55:26.355Z,16.93
2017-06-30T05:56:27.088Z,17.08
2017-06-30T05:57:28.116Z,16.94
2017-06-30T05:58:28.847Z,17.04
2017-06-30T05:59:29.608Z,17.09
2017-06-30T06:00:30.340Z,16.96
2017-06-30T06:01:31.068Z,17.01
2017-06-30T06:02:32.096Z,17.04
2017-06-30T06:03:32.827Z,17.04
2017-06-30T06:04:33.583Z,17.16
2017-06-30T06:05:34.315Z,17.15
2017-06-30T06:06:35.045Z,17.11
2017-06-30T06:07:36.046Z,17.22
2017-06-30T06:08:36.779Z,17.26
2017-06-30T06:09:37.511Z,17.20
2017-06-30T06:10:38.242Z,17.30
2017-06-30T06:11:38.968Z,17.30
2017-06-30T06:12:40.000Z,17.31
2017-06-30T06:13:40.729Z,17.29
2017-06-30T06:14:41.459Z,17.33
2017-06-30T06:15:42.216Z,17.36
2017-06-30T06:16:42.943Z,17.33
2017-06-30T06:17:43.921Z,17.41
2017-06-30T06:18:44.654Z,17.39
2017-06-30T06:19:45.381Z,17.42
2017-06-30T06:20:46.110Z,17.36
2017-06-30T06:21:46.844Z,17.36
2017-06-30T06:22:47.819Z,17.38
2017-06-30T06:23:48.547Z,17.34
2017-06-30T06:24:49.273Z,17.31
2017-06-30T06:25:50.006Z,17.42
2017-06-30T06:26:50.736Z,17.31
2017-06-30T06:27:51.714Z,17.41
2017-06-30T06:28:52.439Z,17.44
2017-06-30T06:29:53.171Z,17.48
2017-06-30T06:30:53.898Z,17.46
2017-06-30T06:31:54.629Z,17.46
2017-06-30T06:32:55.609Z,17.41
2017-06-30T06:33:56.339Z,17.46
2017-06-30T06:34:57.067Z,17.44
2017-06-30T06:35:57.795Z,17.45
2017-06-30T06:36:58.525Z,17.46
2017-06-30T06:37:59.559Z,17.49
2017-06-30T06:39:00.289Z,17.59
2017-06-30T06:40:01.021Z,17.49
2017-06-30T06:41:01.747Z,17.64
2017-06-30T06:42:02.478Z,17.67
2017-06-30T06:43:03.462Z,17.67
2017-06-30T06:44:04.187Z,17.67
2017-06-30T06:45:04.921Z,17.72
2017-06-30T06:46:05.648Z,17.60
2017-06-30T06:47:06.377Z,17.65
2017-06-30T06:48:07.356Z,17.60
2017-06-30T06:49:08.087Z,17.60
2017-06-30T06:50:08.819Z,17.60
2017-06-30T06:51:09.576Z,17.79
2017-06-30T06:52:10.307Z,17.68
2017-06-30T06:53:11.288Z,17.83
2017-06-30T06:54:12.019Z,17.87
2017-06-30T06:55:12.749Z,17.87
2017-06-30T06:56:13.484Z,17.68
2017-06-30T06:57:14.218Z,17.71
2017-06-30T06:58:15.199Z,17.65
2017-06-30T06:59:15.932Z,17.82
2017-06-30T07:00:16.665Z,17.83
2017-06-30T07:01:17.395Z,17.78
2017-06-30T07:02:18.124Z,17.89
2017-06-30T07:03:19.105Z,18.00
2017-06-30T07:04:19.837Z,17.97
2017-06-30T07:05:20.568Z,17.98
2017-06-30T07:06:21.297Z,18.08
2017-06-30T07:07:22.027Z,17.87
2017-06-30T07:08:23.010Z,17.78
2017-06-30T07:09:23.735Z,17.70
2017-06-30T07:10:24.469Z,17.71
2017-06-30T07:11:25.203Z,17.57
2017-06-30T07:12:25.962Z,17.49
2017-06-30T07:13:26.944Z,17.54
2017-06-30T07:14:27.673Z,17.51
2017-06-30T07:15:28.402Z,17.39
2017-06-30T07:16:29.127Z,17.39
2017-06-30T07:17:29.885Z,17.38
2017-06-30T07:18:30.893Z,17.34
2017-06-30T07:19:31.619Z,17.30
2017-06-30T07:20:32.352Z,17.34
2017-06-30T07:21:33.080Z,17.31
2017-06-30T07:22:33.813Z,17.38
2017-06-30T07:23:34.791Z,17.26
2017-06-30T07:24:35.521Z,17.29
2017-06-30T07:25:36.249Z,17.15
2017-06-30T07:26:36.979Z,17.24
2017-06-30T07:27:37.710Z,17.12
2017-06-30T07:28:38.689Z,17.26
2017-06-30T07:29:39.415Z,17.24
2017-06-30T07:30:40.148Z,17.01
2017-06-30T07:31:40.874Z,16.97
2017-06-30T07:32:41.630Z,17.02
2017-06-30T07:33:42.633Z,16.90
2017-06-30T07:34:43.365Z,16.78
2017-06-30T07:35:44.094Z,16.87
2017-06-30T07:36:44.824Z,17.02
2017-06-30T07:37:45.552Z,16.79
2017-06-30T07:38:46.531Z,16.86
2017-06-30T07:39:47.258Z,16.86
2017-06-30T07:40:47.991Z,16.90
2017-06-30T07:41:48.716Z,16.93
2017-06-30T07:42:49.447Z,16.84
2017-06-30T07:43:50.174Z,17.01
2017-06-30T07:44:50.904Z,16.91
2017-06-30T07:45:51.631Z,16.81
2017-06-30T07:46:52.359Z,16.93
2017-06-30T07:47:53.089Z,16.99
2017-06-30T07:48:53.813Z,16.94
2017-06-30T07:49:54.544Z,17.02
2017-06-30T07:50:55.269Z,17.02
2017-06-30T07:51:55.999Z,17.04
2017-06-30T07:52:56.732Z,16.99
2017-06-30T07:53:57.484Z,16.96
2017-06-30T07:54:58.212Z,16.91
2017-06-30T07:55:58.940Z,16.89
2017-06-30T07:56:59.667Z,16.99
2017-06-30T07:58:00.394Z,17.02
2017-06-30T07:59:01.119Z,16.93
2017-06-30T08:00:01.849Z,16.87
2017-06-30T08:01:02.579Z,16.89
2017-06-30T08:02:03.309Z,17.04
2017-06-30T08:03:04.031Z,16.91
2017-06-30T08:04:04.815Z,16.91
2017-06-30T08:05:05.577Z,16.72
2017-06-30T08:06:06.303Z,16.79
2017-06-30T08:07:07.032Z,16.76
2017-06-30T08:08:07.761Z,16.75
2017-06-30T08:09:08.593Z,16.68
2017-06-30T08:10:09.340Z,16.76
2017-06-30T08:11:10.072Z,16.78
2017-06-30T08:12:10.804Z,16.76
2017-06-30T08:13:11.532Z,16.86
2017-06-30T08:14:12.336Z,17.04
2017-06-30T08:15:13.068Z,17.01
2017-06-30T08:16:13.825Z,16.99
2017-06-30T08:17:14.552Z,17.04
2017-06-30T08:18:15.283Z,17.01
2017-06-30T08:19:16.064Z,16.99
2017-06-30T08:20:16.790Z,17.01
2017-06-30T08:21:17.522Z,17.08
2017-06-30T08:22:18.254Z,17.05
2017-06-30T08:23:18.983Z,17.19
2017-06-30T08:24:19.865Z,17.22
2017-06-30T08:25:20.592Z,17.34
2017-06-30T08:26:21.323Z,17.51
2017-06-30T08:27:22.057Z,17.46
2017-06-30T08:28:22.785Z,17.38
2017-06-30T08:29:23.565Z,17.34
2017-06-30T08:30:24.298Z,17.49
2017-06-30T08:31:25.032Z,17.63
2017-06-30T08:32:25.761Z,17.67
2017-06-30T08:33:26.495Z,17.82
2017-06-30T08:34:27.326Z,17.72
2017-06-30T08:35:28.053Z,17.85
2017-06-30T08:36:28.788Z,17.85
2017-06-30T08:37:29.520Z,17.85
2017-06-30T08:38:30.249Z,18.04
2017-06-30T08:39:31.131Z,18.16
2017-06-30T08:40:31.864Z,18.22
2017-06-30T08:41:32.595Z,18.35
2017-06-30T08:42:33.325Z,18.38
2017-06-30T08:43:34.061Z,18.60
2017-06-30T08:44:34.866Z,18.38
2017-06-30T08:45:35.602Z,18.53
2017-06-30T08:46:36.330Z,18.75
2017-06-30T08:47:37.064Z,18.68
2017-06-30T08:48:37.797Z,18.62
2017-06-30T08:49:38.580Z,18.75
2017-06-30T08:50:39.313Z,18.73
2017-06-30T08:51:40.047Z,18.78
2017-06-30T08:52:40.780Z,18.80
2017-06-30T08:53:41.515Z,18.89
2017-06-30T08:54:42.348Z,18.78
2017-06-30T08:55:43.081Z,18.78
2017-06-30T08:56:43.817Z,18.98
2017-06-30T08:57:44.550Z,18.93
2017-06-30T08:58:45.283Z,19.07
2017-06-30T08:59:46.115Z,19.09
2017-06-30T09:00:46.853Z,18.98
2017-06-30T09:01:47.588Z,19.15
2017-06-30T09:02:48.323Z,19.31
2017-06-30T09:03:49.058Z,19.27
2017-06-30T09:04:49.869Z,19.27
2017-06-30T09:05:50.601Z,19.59
2017-06-30T09:06:51.337Z,19.62
2017-06-30T09:07:52.070Z,19.44
2017-06-30T09:08:52.806Z,19.16
2017-06-30T09:09:53.639Z,19.45
2017-06-30T09:10:54.373Z,19.36
2017-06-30T09:11:55.110Z,19.16
2017-06-30T09:12:55.849Z,19.27
2017-06-30T09:13:56.583Z,19.31
2017-06-30T09:14:57.417Z,19.41
2017-06-30T09:15:58.154Z,19.52
2017-06-30T09:16:58.907Z,19.64
2017-06-30T09:17:59.645Z,19.58
2017-06-30T09:19:00.378Z,19.82
2017-06-30T09:20:01.362Z,19.49
2017-06-30T09:21:02.095Z,19.58
2017-06-30T09:22:02.829Z,19.58
2017-06-30T09:23:03.566Z,19.51
2017-06-30T09:24:04.297Z,19.22
2017-06-30T09:25:05.136Z,19.16
2017-06-30T09:26:05.871Z,19.14
2017-06-30T09:27:06.608Z,19.26
2017-06-30T09:28:07.343Z,19.26
2017-06-30T09:29:08.077Z,19.30
2017-06-30T09:30:08.969Z,19.52
2017-06-30T09:31:09.699Z,19.56
2017-06-30T09:32:10.432Z,19.77
2017-06-30T09:33:11.176Z,19.82
2017-06-30T09:34:11.908Z,19.84
2017-06-30T09:35:12.691Z,19.81
2017-06-30T09:36:13.427Z,19.89
2017-06-30T09:37:14.166Z,19.95
2017-06-30T09:38:14.898Z,20.10
2017-06-30T09:39:15.633Z,20.09
2017-06-30T09:40:16.471Z,20.04
2017-06-30T09:41:17.205Z,19.73
2017-06-30T09:42:17.939Z,19.58
2017-06-30T09:43:18.676Z,19.76
2017-06-30T09:44:19.407Z,19.77
2017-06-30T09:45:20.291Z,19.66
2017-06-30T09:46:21.030Z,19.88
2017-06-30T09:47:21.767Z,19.96
2017-06-30T09:48:22.500Z,20.02
2017-06-30T09:49:23.235Z,20.04
2017-06-30T09:50:24.073Z,19.85
2017-06-30T09:51:24.804Z,19.85
2017-06-30T09:52:25.545Z,20.07
2017-06-30T09:53:26.279Z,20.11
2017-06-30T09:54:27.016Z,20.09
2017-06-30T09:55:27.852Z,20.11
2017-06-30T09:56:28.587Z,20.29
2017-06-30T09:57:29.323Z,20.09
2017-06-30T09:58:30.060Z,20.40
2017-06-30T09:59:30.820Z,20.56
2017-06-30T10:00:31.582Z,20.77
2017-06-30T10:01:32.324Z,20.74
2017-06-30T10:02:33.062Z,20.59
2017-06-30T10:03:33.800Z,20.55
2017-06-30T10:04:34.535Z,20.28
2017-06-30T10:05:35.424Z,20.10
2017-06-30T10:06:36.161Z,20.36
2017-06-30T10:07:36.897Z,20.40
2017-06-30T10:08:37.635Z,20.63
2017-06-30T10:09:38.373Z,20.72
2017-06-30T10:10:39.216Z,20.85
2017-06-30T10:11:39.956Z,21.24
2017-06-30T10:12:40.694Z,21.29
2017-06-30T10:13:41.441Z,21.33
2017-06-30T10:14:42.186Z,21.05
2017-06-30T10:15:43.002Z,21.02
2017-06-30T10:16:43.748Z,21.12
2017-06-30T10:17:44.490Z,21.17
2017-06-30T10:18:45.228Z,21.18
2017-06-30T10:19:45.969Z,20.80
2017-06-30T10:20:46.815Z,20.77
2017-06-30T10:21:47.562Z,20.92
2017-06-30T10:22:48.292Z,20.97
2017-06-30T10:23:49.032Z,20.77
2017-06-30T10:24:49.772Z,20.75
2017-06-30T10:25:50.609Z,20.88
2017-06-30T10:26:51.353Z,20.78
2017-06-30T10:27:52.089Z,20.82
2017-06-30T10:28:52.828Z,20.90
2017-06-30T10:29:53.571Z,20.92
2017-06-30T10:30:54.511Z,20.96
2017-06-30T10:31:55.254Z,21.09
2017-06-30T10:32:55.993Z,21.20
2017-06-30T10:33:56.735Z,21.30
2017-06-30T10:34:57.471Z,21.35
2017-06-30T10:35:58.359Z,21.30
2017-06-30T10:36:59.093Z,21.03
2017-06-30T10:37:59.833Z,20.92
2017-06-30T10:39:00.569Z,20.97
2017-06-30T10:40:01.305Z,20.81
2017-06-30T10:41:02.147Z,20.96
2017-06-30T10:42:02.910Z,21.22
2017-06-30T10:43:03.649Z,21.25
2017-06-30T10:44:04.385Z,21.02
2017-06-30T10:45:05.124Z,20.75
2017-06-30T10:46:05.963Z,20.85
2017-06-30T10:47:06.703Z,20.84
2017-06-30T10:48:07.439Z,20.56
2017-06-30T10:49:08.180Z,20.28
2017-06-30T10:50:08.913Z,20.47
2017-06-30T10:51:09.746Z,20.21
2017-06-30T10:52:10.476Z,20.18
2017-06-30T10:53:11.211Z,20.32
2017-06-30T10:54:11.947Z,20.29
2017-06-30T10:55:12.683Z,20.34
2017-06-30T10:56:13.561Z,20.41
2017-06-30T10:57:14.297Z,20.41
2017-06-30T10:58:15.030Z,20.43
2017-06-30T10:59:15.762Z,20.39
2017-06-30T11:00:16.497Z,20.48
2017-06-30T11:01:17.281Z,20.51
2017-06-30T11:02:18.018Z,20.43
2017-06-30T11:03:18.757Z,20.44
2017-06-30T11:04:19.487Z,20.52
2017-06-30T11:05:20.219Z,20.37
2017-06-30T11:06:21.153Z,20.37
2017-06-30T11:07:21.886Z,20.48
2017-06-30T11:08:22.617Z,20.62
2017-06-30T11:09:23.348Z,20.72
2017-06-30T11:10:24.083Z,20.70
2017-06-30T11:11:24.866Z,20.62
2017-06-30T11:12:25.600Z,20.58
2017-06-30T11:13:26.331Z,20.62
2017-06-30T11:14:27.066Z,20.69
2017-06-30T11:15:27.804Z,20.67
2017-06-30T11:16:28.636Z,20.84
2017-06-30T11:17:29.373Z,21.09
2017-06-30T11:18:30.135Z,20.78
2017-06-30T11:19:30.893Z,20.80
2017-06-30T11:20:31.627Z,20.74
2017-06-30T11:21:32.410Z,20.70
2017-06-30T11:22:33.147Z,20.72
2017-06-30T11:23:33.908Z,20.84
2017-06-30T11:24:34.643Z,20.80
2017-06-30T11:25:35.376Z,20.93
2017-06-30T11:26:36.163Z,21.29
2017-06-30T11:27:36.899Z,21.57
2017-06-30T11:28:37.640Z,21.77
2017-06-30T11:29:38.374Z,21.72
2017-06-30T11:30:39.116Z,21.80
2017-06-30T11:31:39.935Z,21.73
2017-06-30T11:32:40.679Z,21.77
2017-06-30T11:33:41.419Z,22.08
2017-06-30T11:34:42.156Z,22.36
2017-06-30T11:35:42.909Z,22.32
2017-06-30T11:36:43.675Z,22.13
2017-06-30T11:37:44.416Z,22.30
2017-06-30T11:38:45.160Z,22.15
2017-06-30T11:39:45.901Z,21.83
2017-06-30T11:40:46.647Z,21.73
2017-06-30T11:41:47.540Z,21.73
2017-06-30T11:42:48.282Z,21.91
2017-06-30T11:43:49.019Z,22.33
2017-06-30T11:44:49.761Z,22.30
2017-06-30T11:45:50.504Z,22.38
2017-06-30T11:46:51.347Z,22.76
2017-06-30T11:47:52.093Z,22.59
2017-06-30T11:48:52.834Z,22.23
2017-06-30T11:49:53.576Z,22.22
2017-06-30T11:50:54.342Z,22.35
2017-06-30T11:51:55.081Z,22.32
2017-06-30T11:52:55.820Z,22.39
2017-06-30T11:53:56.561Z,22.50
2017-06-30T11:54:57.300Z,22.62
2017-06-30T11:55:58.046Z,22.63
2017-06-30T11:56:58.838Z,22.55
2017-06-30T11:57:59.579Z,22.62
2017-06-30T11:59:00.326Z,22.55
2017-06-30T12:00:01.066Z,22.84
2017-06-30T12:01:01.804Z,22.45
2017-06-30T12:02:02.601Z,22.63
2017-06-30T12:03:03.340Z,22.76
2017-06-30T12:04:04.083Z,22.81
2017-06-30T12:05:04.846Z,22.87
2017-06-30T12:06:05.583Z,22.91
2017-06-30T12:07:06.322Z,23.15
2017-06-30T12:08:07.060Z,22.94
2017-06-30T12:09:07.821Z,22.75
2017-06-30T12:10:08.564Z,22.69
2017-06-30T12:11:09.307Z,22.90
2017-06-30T12:12:10.149Z,22.45
2017-06-30T12:13:10.886Z,22.72
2017-06-30T12:14:11.630Z,22.87
2017-06-30T12:15:12.371Z,22.78
2017-06-30T12:16:13.107Z,22.75
2017-06-30T12:17:13.950Z,22.87
2017-06-30T12:18:14.715Z,22.73
2017-06-30T12:19:15.459Z,22.62
2017-06-30T12:20:16.197Z,22.69
2017-06-30T12:21:16.938Z,23.09
2017-06-30T12:22:17.676Z,23.03
2017-06-30T12:23:18.417Z,22.96
2017-06-30T12:24:19.157Z,23.31
2017-06-30T12:25:19.895Z,23.32
2017-06-30T12:26:20.639Z,23.32
2017-06-30T12:27:21.404Z,23.20
2017-06-30T12:28:22.142Z,23.06
2017-06-30T12:29:22.879Z,23.03
2017-06-30T12:30:23.617Z,22.80
2017-06-30T12:31:24.358Z,22.62
2017-06-30T12:32:25.197Z,22.51
2017-06-30T12:33:25.936Z,22.47
2017-06-30T12:34:26.673Z,22.47
2017-06-30T12:35:27.422Z,22.44
2017-06-30T12:36:28.181Z,22.06
2017-06-30T12:37:28.925Z,21.89
2017-06-30T12:38:29.661Z,21.75
2017-06-30T12:39:30.404Z,21.69
2017-06-30T12:40:31.172Z,21.85
2017-06-30T12:41:31.908Z,21.99
2017-06-30T12:42:32.673Z,21.93
2017-06-30T12:43:33.412Z,21.92
2017-06-30T12:44:34.151Z,21.93
2017-06-30T12:45:34.887Z,21.89
2017-06-30T12:46:35.632Z,21.92
2017-06-30T12:47:36.474Z,22.00
2017-06-30T12:48:37.239Z,22.07
2017-06-30T12:49:37.978Z,22.08
2017-06-30T12:50:38.719Z,21.96
2017-06-30T12:51:39.459Z,22.11
2017-06-30T12:52:40.196Z,22.14
2017-06-30T12:53:40.963Z,22.25
2017-06-30T12:54:41.702Z,22.11
2017-06-30T12:55:42.439Z,21.93
2017-06-30T12:56:43.203Z,21.72
2017-06-30T12:57:44.018Z,21.67
2017-06-30T12:58:44.758Z,21.55
2017-06-30T12:59:45.517Z,21.45
2017-06-30T13:00:46.256Z,21.60
2017-06-30T13:01:46.991Z,21.51
2017-06-30T13:02:47.826Z,21.46
2017-06-30T13:03:48.557Z,21.33
2017-06-30T13:04:49.288Z,21.21
2017-06-30T13:05:50.023Z,21.20
2017-06-30T13:06:50.756Z,21.15
2017-06-30T13:07:51.633Z,21.07
2017-06-30T13:08:52.367Z,20.96
2017-06-30T13:09:53.099Z,21.00
2017-06-30T13:10:53.834Z,20.96
2017-06-30T13:11:54.564Z,20.82
2017-06-30T13:12:55.448Z,20.81
2017-06-30T13:13:56.179Z,20.81
2017-06-30T13:14:56.908Z,20.77
2017-06-30T13:15:57.642Z,20.80
2017-06-30T13:16:58.376Z,20.69
2017-06-30T13:17:59.256Z,20.75
2017-06-30T13:18:59.990Z,20.67
2017-06-30T13:20:00.723Z,20.65
2017-06-30T13:21:01.453Z,20.69
2017-06-30T13:22:02.182Z,20.88
2017-06-30T13:23:03.013Z,20.90
2017-06-30T13:24:03.746Z,21.03
2017-06-30T13:25:04.479Z,21.12
2017-06-30T13:26:05.208Z,21.29
2017-06-30T13:27:05.944Z,21.33
2017-06-30T13:28:06.774Z,21.33
2017-06-30T13:29:07.506Z,21.25
2017-06-30T13:30:08.260Z,21.33
2017-06-30T13:31:08.997Z,21.40
2017-06-30T13:32:09.727Z,21.43
2017-06-30T13:33:10.562Z,21.30
2017-06-30T13:34:11.290Z,21.24
2017-06-30T13:35:12.025Z,21.18
2017-06-30T13:36:12.758Z,21.15
2017-06-30T13:37:13.487Z,21.06
2017-06-30T13:38:14.320Z,21.12
2017-06-30T13:39:15.051Z,21.33
2017-06-30T13:40:15.787Z,21.43
2017-06-30T13:41:16.518Z,21.52
2017-06-30T13:42:17.254Z,21.70
2017-06-30T13:43:18.083Z,21.69
2017-06-30T13:44:18.816Z,21.75
2017-06-30T13:45:19.549Z,21.83
2017-06-30T13:46:20.285Z,21.80
2017-06-30T13:47:21.020Z,21.85
2017-06-30T13:48:21.854Z,21.93
2017-06-30T13:49:22.592Z,21.79
2017-06-30T13:50:23.321Z,21.62
2017-06-30T13:51:24.080Z,21.70